sensor_id;sensor_type;location;lat;lon;timestamp;pressure;altitude;pressure_sealevel;temperature;humidity
64115;BME280;62188;35.640;139.748;2023-07-24T00:02:24;101443.89;;;28.55;46.42
64115;BME280;62188;35.640;139.748;2023-07-24T00:04:49;101441.45;;;28.87;46.17
64115;BME280;62188;35.640;139.748;2023-07-24T00:07:15;101442.86;;;28.93;46.44
64115;BME280;62188;35.640;139.748;2023-07-24T00:09:40;101442.75;;;28.44;47.74
64115;BME280;62188;35.640;139.748;2023-07-24T00:12:05;101444.15;;;27.95;49.73
64115;BME280;62188;35.640;139.748;2023-07-24T00:14:31;101443.06;;;28.53;47.86
64115;BME280;62188;35.640;139.748;2023-07-24T00:16:55;101445.08;;;28.50;48.35
64115;BME280;62188;35.640;139.748;2023-07-24T00:19:21;101439.94;;;28.16;49.76
64115;BME280;62188;35.640;139.748;2023-07-24T00:21:46;101445.45;;;27.93;50.01
64115;BME280;62188;35.640;139.748;2023-07-24T00:24:12;101440.58;;;28.15;49.29
64115;BME280;62188;35.640;139.748;2023-07-24T00:26:38;101437.59;;;28.53;49.17
64115;BME280;62188;35.640;139.748;2023-07-24T00:29:02;101440.86;;;28.04;49.80
64115;BME280;62188;35.640;139.748;2023-07-24T00:31:27;101429.39;;;28.80;49.05
64115;BME280;62188;35.640;139.748;2023-07-24T00:33:53;101432.90;;;28.48;49.68
64115;BME280;62188;35.640;139.748;2023-07-24T00:36:19;101437.62;;;28.27;49.88
64115;BME280;62188;35.640;139.748;2023-07-24T00:38:44;101433.43;;;28.39;49.71
64115;BME280;62188;35.640;139.748;2023-07-24T00:41:10;101428.41;;;28.51;49.24
64115;BME280;62188;35.640;139.748;2023-07-24T00:43:35;101425.07;;;28.66;48.99
64115;BME280;62188;35.640;139.748;2023-07-24T00:46:00;101430.38;;;28.47;48.95
64115;BME280;62188;35.640;139.748;2023-07-24T00:48:26;101433.11;;;28.30;49.18
64115;BME280;62188;35.640;139.748;2023-07-24T00:50:51;101426.53;;;29.02;49.13
64115;BME280;62188;35.640;139.748;2023-07-24T00:53:17;101432.50;;;28.19;49.64
64115;BME280;62188;35.640;139.748;2023-07-24T00:55:43;101425.99;;;28.13;50.17
64115;BME280;62188;35.640;139.748;2023-07-24T00:58:07;101426.06;;;28.19;49.73
64115;BME280;62188;35.640;139.748;2023-07-24T01:00:34;101424.79;;;28.39;49.41
64115;BME280;62188;35.640;139.748;2023-07-24T01:03:00;101424.02;;;28.28;48.55
64115;BME280;62188;35.640;139.748;2023-07-24T01:05:26;101418.67;;;28.07;48.41
64115;BME280;62188;35.640;139.748;2023-07-24T01:07:49;101414.03;;;27.96;49.05
64115;BME280;62188;35.640;139.748;2023-07-24T01:10:14;101415.20;;;28.36;48.36
64115;BME280;62188;35.640;139.748;2023-07-24T01:12:48;101408.17;;;28.82;47.29
64115;BME280;62188;35.640;139.748;2023-07-24T01:15:09;101409.35;;;28.14;46.75
64115;BME280;62188;35.640;139.748;2023-07-24T01:17:32;101406.34;;;28.63;44.00
64115;BME280;62188;35.640;139.748;2023-07-24T01:19:59;101408.56;;;28.15;43.33
64115;BME280;62188;35.640;139.748;2023-07-24T01:22:30;101412.78;;;27.65;44.53
64115;BME280;62188;35.640;139.748;2023-07-24T01:25:02;101405.51;;;27.74;44.83
64115;BME280;62188;35.640;139.748;2023-07-24T01:29:38;101403.13;;;26.91;47.80
64115;BME280;62188;35.640;139.748;2023-07-24T01:32:04;101403.44;;;28.24;46.69
64115;BME280;62188;35.640;139.748;2023-07-24T01:34:29;101400.04;;;28.09;48.15
64115;BME280;62188;35.640;139.748;2023-07-24T01:36:54;101396.36;;;27.44;49.50
64115;BME280;62188;35.640;139.748;2023-07-24T01:39:19;101403.77;;;27.81;49.91
64115;BME280;62188;35.640;139.748;2023-07-24T01:41:45;101393.77;;;27.44;50.12
64115;BME280;62188;35.640;139.748;2023-07-24T01:44:11;101392.59;;;28.13;48.98
64115;BME280;62188;35.640;139.748;2023-07-24T01:46:36;101390.33;;;28.41;48.48
64115;BME280;62188;35.640;139.748;2023-07-24T01:49:01;101392.72;;;27.77;49.33
64115;BME280;62188;35.640;139.748;2023-07-24T01:51:32;101391.42;;;28.76;47.83
64115;BME280;62188;35.640;139.748;2023-07-24T01:53:52;101387.67;;;28.53;47.71
64115;BME280;62188;35.640;139.748;2023-07-24T01:56:17;101384.25;;;28.23;47.96
64115;BME280;62188;35.640;139.748;2023-07-24T01:58:42;101383.88;;;28.67;46.38
64115;BME280;62188;35.640;139.748;2023-07-24T02:01:08;101381.33;;;28.22;45.72
64115;BME280;62188;35.640;139.748;2023-07-24T02:03:33;101374.91;;;28.32;45.36
64115;BME280;62188;35.640;139.748;2023-07-24T02:05:58;101373.36;;;28.19;44.48
64115;BME280;62188;35.640;139.748;2023-07-24T02:08:24;101381.22;;;28.24;44.68
64115;BME280;62188;35.640;139.748;2023-07-24T02:10:50;101376.44;;;28.51;43.88
64115;BME280;62188;35.640;139.748;2023-07-24T02:13:15;101369.55;;;29.45;43.22
64115;BME280;62188;35.640;139.748;2023-07-24T02:15:40;101373.12;;;28.75;43.33
64115;BME280;62188;35.640;139.748;2023-07-24T02:18:06;101374.62;;;28.31;43.82
64115;BME280;62188;35.640;139.748;2023-07-24T02:20:30;101367.37;;;28.15;43.69
64115;BME280;62188;35.640;139.748;2023-07-24T02:22:56;101367.69;;;28.74;43.40
64115;BME280;62188;35.640;139.748;2023-07-24T02:25:21;101376.18;;;28.77;43.37
64115;BME280;62188;35.640;139.748;2023-07-24T02:27:46;101366.65;;;28.36;43.15
64115;BME280;62188;35.640;139.748;2023-07-24T02:30:12;101359.10;;;28.48;43.41
64115;BME280;62188;35.640;139.748;2023-07-24T02:32:36;101369.26;;;28.76;43.08
64115;BME280;62188;35.640;139.748;2023-07-24T02:35:02;101361.36;;;28.87;43.15
64115;BME280;62188;35.640;139.748;2023-07-24T02:37:27;101360.26;;;28.95;43.94
64115;BME280;62188;35.640;139.748;2023-07-24T02:39:54;101356.76;;;29.58;42.22
64115;BME280;62188;35.640;139.748;2023-07-24T02:42:19;101355.33;;;29.49;43.07
64115;BME280;62188;35.640;139.748;2023-07-24T02:44:43;101351.72;;;29.35;44.10
64115;BME280;62188;35.640;139.748;2023-07-24T02:47:09;101355.72;;;29.75;42.39
64115;BME280;62188;35.640;139.748;2023-07-24T02:49:34;101346.01;;;29.87;42.37
64115;BME280;62188;35.640;139.748;2023-07-24T02:52:00;101342.94;;;30.21;41.55
64115;BME280;62188;35.640;139.748;2023-07-24T02:54:26;101340.40;;;29.66;39.54
64115;BME280;62188;35.640;139.748;2023-07-24T02:56:50;101340.85;;;30.27;39.14
64115;BME280;62188;35.640;139.748;2023-07-24T02:59:15;101338.22;;;30.51;39.48
64115;BME280;62188;35.640;139.748;2023-07-24T03:01:40;101336.50;;;30.36;36.80
64115;BME280;62188;35.640;139.748;2023-07-24T03:04:06;101332.17;;;30.26;36.78
64115;BME280;62188;35.640;139.748;2023-07-24T03:06:30;101335.84;;;30.26;36.12
64115;BME280;62188;35.640;139.748;2023-07-24T03:08:56;101332.31;;;29.88;37.78
64115;BME280;62188;35.640;139.748;2023-07-24T03:11:21;101325.85;;;30.14;37.68
64115;BME280;62188;35.640;139.748;2023-07-24T03:13:47;101328.99;;;30.60;37.70
64115;BME280;62188;35.640;139.748;2023-07-24T03:16:13;101323.87;;;30.36;37.29
64115;BME280;62188;35.640;139.748;2023-07-24T03:18:38;101323.28;;;30.87;36.60
64115;BME280;62188;35.640;139.748;2023-07-24T03:21:04;101318.13;;;31.05;37.19
64115;BME280;62188;35.640;139.748;2023-07-24T03:23:31;101313.62;;;31.05;36.98
64115;BME280;62188;35.640;139.748;2023-07-24T03:25:55;101313.87;;;30.61;37.17
64115;BME280;62188;35.640;139.748;2023-07-24T03:28:19;101308.72;;;31.51;36.81
64115;BME280;62188;35.640;139.748;2023-07-24T03:30:44;101308.34;;;31.10;35.99
64115;BME280;62188;35.640;139.748;2023-07-24T03:33:09;101314.07;;;31.18;35.68
64115;BME280;62188;35.640;139.748;2023-07-24T03:35:35;101301.55;;;31.24;36.35
64115;BME280;62188;35.640;139.748;2023-07-24T03:38:00;101295.79;;;30.44;36.59
64115;BME280;62188;35.640;139.748;2023-07-24T03:40:25;101303.89;;;30.86;36.08
64115;BME280;62188;35.640;139.748;2023-07-24T03:42:50;101302.10;;;30.92;36.04
64115;BME280;62188;35.640;139.748;2023-07-24T03:45:16;101299.92;;;31.05;35.69
64115;BME280;62188;35.640;139.748;2023-07-24T03:47:40;101297.08;;;30.99;36.47
64115;BME280;62188;35.640;139.748;2023-07-24T03:50:07;101292.90;;;31.59;36.16
64115;BME280;62188;35.640;139.748;2023-07-24T03:52:31;101299.40;;;30.85;36.15
64115;BME280;62188;35.640;139.748;2023-07-24T03:54:56;101301.15;;;31.63;34.01
64115;BME280;62188;35.640;139.748;2023-07-24T03:57:22;101289.12;;;31.57;34.38
64115;BME280;62188;35.640;139.748;2023-07-24T03:59:47;101297.05;;;31.22;34.46
64115;BME280;62188;35.640;139.748;2023-07-24T04:02:12;101293.22;;;30.47;34.74
64115;BME280;62188;35.640;139.748;2023-07-24T04:04:38;101295.80;;;31.24;34.10
64115;BME280;62188;35.640;139.748;2023-07-24T04:07:04;101292.26;;;31.20;33.19
64115;BME280;62188;35.640;139.748;2023-07-24T04:09:28;101292.59;;;31.04;33.20
64115;BME280;62188;35.640;139.748;2023-07-24T04:11:54;101288.62;;;30.66;30.59
64115;BME280;62188;35.640;139.748;2023-07-24T04:14:18;101289.27;;;31.14;31.72
64115;BME280;62188;35.640;139.748;2023-07-24T04:16:43;101286.65;;;31.17;31.67
64115;BME280;62188;35.640;139.748;2023-07-24T04:19:09;101286.98;;;31.02;31.21
64115;BME280;62188;35.640;139.748;2023-07-24T04:21:34;101285.87;;;31.08;31.59
64115;BME280;62188;35.640;139.748;2023-07-24T04:23:59;101279.98;;;30.99;31.15
64115;BME280;62188;35.640;139.748;2023-07-24T04:26:25;101287.46;;;31.11;30.42
64115;BME280;62188;35.640;139.748;2023-07-24T04:28:50;101284.00;;;30.98;30.60
64115;BME280;62188;35.640;139.748;2023-07-24T04:31:15;101273.68;;;31.37;31.02
64115;BME280;62188;35.640;139.748;2023-07-24T04:33:40;101276.61;;;31.53;30.98
64115;BME280;62188;35.640;139.748;2023-07-24T04:36:06;101272.03;;;31.36;30.22
64115;BME280;62188;35.640;139.748;2023-07-24T04:38:31;101279.26;;;30.89;30.88
64115;BME280;62188;35.640;139.748;2023-07-24T04:40:56;101275.20;;;31.03;31.50
64115;BME280;62188;35.640;139.748;2023-07-24T04:43:21;101272.63;;;31.52;31.30
64115;BME280;62188;35.640;139.748;2023-07-24T04:45:46;101268.93;;;30.80;31.25
64115;BME280;62188;35.640;139.748;2023-07-24T04:48:12;101272.74;;;31.11;31.88
64115;BME280;62188;35.640;139.748;2023-07-24T04:50:37;101268.72;;;31.07;32.42
64115;BME280;62188;35.640;139.748;2023-07-24T04:53:02;101267.00;;;30.82;32.60
64115;BME280;62188;35.640;139.748;2023-07-24T04:55:28;101267.53;;;30.87;33.20
64115;BME280;62188;35.640;139.748;2023-07-24T04:57:53;101269.35;;;31.03;33.46
64115;BME280;62188;35.640;139.748;2023-07-24T05:00:18;101264.15;;;30.47;33.90
64115;BME280;62188;35.640;139.748;2023-07-24T05:02:43;101268.33;;;30.95;34.46
64115;BME280;62188;35.640;139.748;2023-07-24T05:05:09;101259.06;;;30.80;34.39
64115;BME280;62188;35.640;139.748;2023-07-24T05:07:35;101266.55;;;30.90;35.09
64115;BME280;62188;35.640;139.748;2023-07-24T05:10:00;101260.85;;;30.81;34.35
64115;BME280;62188;35.640;139.748;2023-07-24T05:12:25;101260.03;;;31.57;33.73
64115;BME280;62188;35.640;139.748;2023-07-24T05:14:50;101262.54;;;31.57;32.88
64115;BME280;62188;35.640;139.748;2023-07-24T05:17:15;101263.21;;;30.97;33.43
64115;BME280;62188;35.640;139.748;2023-07-24T05:19:40;101255.06;;;31.13;33.46
64115;BME280;62188;35.640;139.748;2023-07-24T05:22:05;101253.80;;;31.35;33.40
64115;BME280;62188;35.640;139.748;2023-07-24T05:24:30;101268.68;;;30.87;31.76
64115;BME280;62188;35.640;139.748;2023-07-24T05:26:56;101249.62;;;31.13;32.61
64115;BME280;62188;35.640;139.748;2023-07-24T05:29:21;101253.56;;;30.69;33.84
64115;BME280;62188;35.640;139.748;2023-07-24T05:31:46;101246.86;;;30.89;33.73
64115;BME280;62188;35.640;139.748;2023-07-24T05:34:12;101249.33;;;30.72;34.07
64115;BME280;62188;35.640;139.748;2023-07-24T05:36:37;101241.52;;;31.00;32.45
64115;BME280;62188;35.640;139.748;2023-07-24T05:39:03;101245.92;;;31.15;31.62
64115;BME280;62188;35.640;139.748;2023-07-24T05:41:27;101247.88;;;31.45;32.03
64115;BME280;62188;35.640;139.748;2023-07-24T05:43:53;101239.29;;;31.32;32.69
64115;BME280;62188;35.640;139.748;2023-07-24T05:46:17;101242.21;;;30.94;33.00
64115;BME280;62188;35.640;139.748;2023-07-24T05:48:43;101249.92;;;30.63;33.63
64115;BME280;62188;35.640;139.748;2023-07-24T05:51:08;101242.35;;;30.44;33.94
64115;BME280;62188;35.640;139.748;2023-07-24T05:53:34;101245.86;;;31.04;33.20
64115;BME280;62188;35.640;139.748;2023-07-24T05:56:00;101245.30;;;30.80;33.87
64115;BME280;62188;35.640;139.748;2023-07-24T05:58:24;101246.30;;;31.09;34.33
64115;BME280;62188;35.640;139.748;2023-07-24T06:00:49;101243.69;;;30.57;33.65
64115;BME280;62188;35.640;139.748;2023-07-24T06:03:20;101241.89;;;30.59;34.28
64115;BME280;62188;35.640;139.748;2023-07-24T06:05:40;101238.88;;;30.46;33.68
64115;BME280;62188;35.640;139.748;2023-07-24T06:08:05;101232.38;;;30.90;35.01
64115;BME280;62188;35.640;139.748;2023-07-24T06:10:31;101239.16;;;30.72;35.33
64115;BME280;62188;35.640;139.748;2023-07-24T06:12:56;101245.52;;;30.54;36.45
64115;BME280;62188;35.640;139.748;2023-07-24T06:15:21;101235.74;;;30.79;35.75
64115;BME280;62188;35.640;139.748;2023-07-24T06:17:46;101237.97;;;30.44;36.27
64115;BME280;62188;35.640;139.748;2023-07-24T06:20:12;101242.57;;;30.31;37.99
64115;BME280;62188;35.640;139.748;2023-07-24T06:22:37;101240.26;;;30.50;38.36
64115;BME280;62188;35.640;139.748;2023-07-24T06:25:02;101238.20;;;30.04;39.26
64115;BME280;62188;35.640;139.748;2023-07-24T06:27:27;101242.69;;;30.60;39.04
64115;BME280;62188;35.640;139.748;2023-07-24T06:29:54;101243.70;;;30.29;39.48
64115;BME280;62188;35.640;139.748;2023-07-24T06:32:18;101243.34;;;30.28;39.15
64115;BME280;62188;35.640;139.748;2023-07-24T06:34:43;101238.44;;;30.31;38.17
64115;BME280;62188;35.640;139.748;2023-07-24T06:37:08;101235.27;;;30.16;39.05
64115;BME280;62188;35.640;139.748;2023-07-24T06:39:34;101239.32;;;30.16;39.68
64115;BME280;62188;35.640;139.748;2023-07-24T06:41:59;101237.83;;;29.96;40.16
64115;BME280;62188;35.640;139.748;2023-07-24T06:44:25;101244.03;;;29.62;40.60
64115;BME280;62188;35.640;139.748;2023-07-24T06:46:49;101238.29;;;29.96;40.32
64115;BME280;62188;35.640;139.748;2023-07-24T06:49:15;101243.43;;;30.09;40.63
64115;BME280;62188;35.640;139.748;2023-07-24T06:51:39;101238.74;;;29.76;41.85
64115;BME280;62188;35.640;139.748;2023-07-24T06:54:05;101243.51;;;29.80;42.22
64115;BME280;62188;35.640;139.748;2023-07-24T06:56:37;101244.60;;;30.25;42.65
64115;BME280;62188;35.640;139.748;2023-07-24T06:58:55;101244.19;;;29.69;43.16
64115;BME280;62188;35.640;139.748;2023-07-24T07:01:23;101237.66;;;29.50;42.84
64115;BME280;62188;35.640;139.748;2023-07-24T07:03:46;101233.71;;;29.78;43.02
64115;BME280;62188;35.640;139.748;2023-07-24T07:06:11;101237.34;;;29.70;42.94
64115;BME280;62188;35.640;139.748;2023-07-24T07:08:37;101233.85;;;29.88;43.17
64115;BME280;62188;35.640;139.748;2023-07-24T07:11:02;101244.06;;;29.84;44.32
64115;BME280;62188;35.640;139.748;2023-07-24T07:13:27;101240.33;;;29.90;44.45
64115;BME280;62188;35.640;139.748;2023-07-24T07:15:52;101242.59;;;29.55;45.33
64115;BME280;62188;35.640;139.748;2023-07-24T07:18:17;101238.78;;;30.28;43.72
64115;BME280;62188;35.640;139.748;2023-07-24T07:20:46;101242.69;;;30.10;43.90
64115;BME280;62188;35.640;139.748;2023-07-24T07:23:08;101242.83;;;30.44;43.49
64115;BME280;62188;35.640;139.748;2023-07-24T07:25:33;101248.24;;;30.32;43.70
64115;BME280;62188;35.640;139.748;2023-07-24T07:27:58;101249.46;;;30.64;43.02
64115;BME280;62188;35.640;139.748;2023-07-24T07:30:24;101250.28;;;30.30;43.22
64115;BME280;62188;35.640;139.748;2023-07-24T07:32:50;101264.87;;;30.83;43.66
64115;BME280;62188;35.640;139.748;2023-07-24T07:35:15;101265.65;;;29.51;43.93
64115;BME280;62188;35.640;139.748;2023-07-24T07:37:40;101265.20;;;29.82;42.79
64115;BME280;62188;35.640;139.748;2023-07-24T07:40:07;101265.78;;;29.75;43.38
64115;BME280;62188;35.640;139.748;2023-07-24T07:42:29;101262.86;;;29.71;42.88
64115;BME280;62188;35.640;139.748;2023-07-24T07:44:56;101255.97;;;30.04;42.58
64115;BME280;62188;35.640;139.748;2023-07-24T07:47:20;101261.80;;;30.20;42.75
64115;BME280;62188;35.640;139.748;2023-07-24T07:49:46;101266.54;;;30.00;44.70
64115;BME280;62188;35.640;139.748;2023-07-24T07:52:11;101262.84;;;30.38;44.76
64115;BME280;62188;35.640;139.748;2023-07-24T07:54:37;101274.17;;;29.80;45.99
64115;BME280;62188;35.640;139.748;2023-07-24T07:57:01;101272.97;;;30.10;45.74
64115;BME280;62188;35.640;139.748;2023-07-24T07:59:26;101275.15;;;29.98;45.76
64115;BME280;62188;35.640;139.748;2023-07-24T08:01:52;101267.69;;;30.00;44.97
64115;BME280;62188;35.640;139.748;2023-07-24T08:04:17;101270.70;;;30.33;44.06
64115;BME280;62188;35.640;139.748;2023-07-24T08:06:43;101268.74;;;30.65;43.19
64115;BME280;62188;35.640;139.748;2023-07-24T08:09:08;101266.23;;;30.34;43.18
64115;BME280;62188;35.640;139.748;2023-07-24T08:11:33;101270.85;;;30.13;43.33
64115;BME280;62188;35.640;139.748;2023-07-24T08:13:58;101275.18;;;30.21;43.47
64115;BME280;62188;35.640;139.748;2023-07-24T08:16:23;101276.01;;;30.04;45.63
64115;BME280;62188;35.640;139.748;2023-07-24T08:18:49;101275.15;;;29.91;44.16
64115;BME280;62188;35.640;139.748;2023-07-24T08:21:14;101278.26;;;29.24;45.14
64115;BME280;62188;35.640;139.748;2023-07-24T08:23:39;101281.24;;;29.38;45.82
64115;BME280;62188;35.640;139.748;2023-07-24T08:26:04;101284.01;;;29.48;45.69
64115;BME280;62188;35.640;139.748;2023-07-24T08:28:30;101285.22;;;29.10;46.19
64115;BME280;62188;35.640;139.748;2023-07-24T08:30:59;101284.76;;;29.38;46.18
64115;BME280;62188;35.640;139.748;2023-07-24T08:33:20;101284.41;;;29.51;45.32
64115;BME280;62188;35.640;139.748;2023-07-24T08:35:45;101288.16;;;29.82;45.94
64115;BME280;62188;35.640;139.748;2023-07-24T08:38:11;101285.12;;;29.20;46.33
64115;BME280;62188;35.640;139.748;2023-07-24T08:40:36;101281.82;;;29.50;46.57
64115;BME280;62188;35.640;139.748;2023-07-24T08:43:01;101283.24;;;29.40;46.26
64115;BME280;62188;35.640;139.748;2023-07-24T08:45:27;101282.81;;;29.72;46.50
64115;BME280;62188;35.640;139.748;2023-07-24T08:47:52;101282.08;;;29.93;46.61
64115;BME280;62188;35.640;139.748;2023-07-24T08:50:17;101280.47;;;29.69;47.44
64115;BME280;62188;35.640;139.748;2023-07-24T08:52:43;101284.98;;;29.22;48.36
64115;BME280;62188;35.640;139.748;2023-07-24T08:55:08;101286.27;;;29.86;47.90
64115;BME280;62188;35.640;139.748;2023-07-24T08:57:33;101299.44;;;29.43;48.25
64115;BME280;62188;35.640;139.748;2023-07-24T08:59:58;101300.38;;;29.56;48.57
64115;BME280;62188;35.640;139.748;2023-07-24T09:02:24;101297.86;;;29.56;48.30
64115;BME280;62188;35.640;139.748;2023-07-24T09:04:49;101301.94;;;29.23;48.34
64115;BME280;62188;35.640;139.748;2023-07-24T09:07:15;101303.96;;;29.42;48.28
64115;BME280;62188;35.640;139.748;2023-07-24T09:09:41;101307.63;;;28.91;49.11
64115;BME280;62188;35.640;139.748;2023-07-24T09:12:05;101303.23;;;28.80;49.74
64115;BME280;62188;35.640;139.748;2023-07-24T09:14:30;101308.06;;;28.70;49.65
64115;BME280;62188;35.640;139.748;2023-07-24T09:17:05;101307.45;;;28.94;49.70
64115;BME280;62188;35.640;139.748;2023-07-24T09:19:20;101307.11;;;29.30;49.12
64115;BME280;62188;35.640;139.748;2023-07-24T09:21:46;101308.10;;;29.48;48.82
64115;BME280;62188;35.640;139.748;2023-07-24T09:24:13;101309.10;;;29.47;48.54
64115;BME280;62188;35.640;139.748;2023-07-24T09:26:48;101312.01;;;29.37;48.94
64115;BME280;62188;35.640;139.748;2023-07-24T09:29:02;101320.67;;;29.24;49.25
64115;BME280;62188;35.640;139.748;2023-07-24T09:31:34;101321.12;;;28.91;49.77
64115;BME280;62188;35.640;139.748;2023-07-24T09:33:53;101322.21;;;28.99;49.97
64115;BME280;62188;35.640;139.748;2023-07-24T09:36:18;101328.04;;;29.07;50.32
64115;BME280;62188;35.640;139.748;2023-07-24T09:38:44;101324.64;;;28.86;50.70
64115;BME280;62188;35.640;139.748;2023-07-24T09:41:09;101319.32;;;28.24;52.05
64115;BME280;62188;35.640;139.748;2023-07-24T09:43:34;101328.94;;;28.46;51.62
64115;BME280;62188;35.640;139.748;2023-07-24T09:45:59;101322.44;;;28.25;52.09
64115;BME280;62188;35.640;139.748;2023-07-24T09:48:26;101324.99;;;28.04;52.57
64115;BME280;62188;35.640;139.748;2023-07-24T09:50:54;101323.66;;;28.46;51.29
64115;BME280;62188;35.640;139.748;2023-07-24T09:53:22;101328.24;;;28.73;51.14
64115;BME280;62188;35.640;139.748;2023-07-24T09:55:47;101329.42;;;28.92;50.81
64115;BME280;62188;35.640;139.748;2023-07-24T09:58:07;101333.41;;;28.84;50.58
64115;BME280;62188;35.640;139.748;2023-07-24T10:00:32;101334.46;;;29.18;50.38
64115;BME280;62188;35.640;139.748;2023-07-24T10:02:57;101339.28;;;28.46;50.80
64115;BME280;62188;35.640;139.748;2023-07-24T10:05:23;101340.01;;;28.55;50.14
64115;BME280;62188;35.640;139.748;2023-07-24T10:07:47;101342.78;;;28.02;51.14
64115;BME280;62188;35.640;139.748;2023-07-24T10:10:13;101337.01;;;28.29;50.32
64115;BME280;62188;35.640;139.748;2023-07-24T10:12:39;101337.55;;;27.47;51.52
64115;BME280;62188;35.640;139.748;2023-07-24T10:15:04;101339.94;;;28.31;50.73
64115;BME280;62188;35.640;139.748;2023-07-24T10:17:35;101347.82;;;27.81;51.96
64115;BME280;62188;35.640;139.748;2023-07-24T10:20:01;101348.24;;;27.35;52.87
64115;BME280;62188;35.640;139.748;2023-07-24T10:22:19;101344.95;;;27.13;53.23
64115;BME280;62188;35.640;139.748;2023-07-24T10:24:44;101351.57;;;27.39;52.73
64115;BME280;62188;35.640;139.748;2023-07-24T10:27:10;101361.39;;;26.87;53.95
64115;BME280;62188;35.640;139.748;2023-07-24T10:29:38;101357.33;;;27.36;53.03
64115;BME280;62188;35.640;139.748;2023-07-24T10:32:00;101357.76;;;27.53;52.91
64115;BME280;62188;35.640;139.748;2023-07-24T10:34:35;101360.07;;;27.58;52.33
64115;BME280;62188;35.640;139.748;2023-07-24T10:37:01;101363.71;;;28.27;51.08
64115;BME280;62188;35.640;139.748;2023-07-24T10:39:17;101362.56;;;28.23;51.67
64115;BME280;62188;35.640;139.748;2023-07-24T10:41:42;101364.09;;;28.36;50.63
64115;BME280;62188;35.640;139.748;2023-07-24T10:44:07;101367.69;;;28.03;51.37
64115;BME280;62188;35.640;139.748;2023-07-24T10:46:38;101369.28;;;28.11;49.93
64115;BME280;62188;35.640;139.748;2023-07-24T10:49:01;101373.27;;;28.11;50.81
64115;BME280;62188;35.640;139.748;2023-07-24T10:51:23;101385.37;;;28.19;50.78
64115;BME280;62188;35.640;139.748;2023-07-24T10:53:49;101385.68;;;27.40;52.92
64115;BME280;62188;35.640;139.748;2023-07-24T10:56:14;101388.71;;;27.22;53.71
64115;BME280;62188;35.640;139.748;2023-07-24T10:58:39;101393.27;;;27.32;53.58
64115;BME280;62188;35.640;139.748;2023-07-24T11:01:05;101402.34;;;26.71;54.96
64115;BME280;62188;35.640;139.748;2023-07-24T11:03:29;101399.17;;;27.19;53.94
64115;BME280;62188;35.640;139.748;2023-07-24T11:05:56;101404.01;;;27.05;54.34
64115;BME280;62188;35.640;139.748;2023-07-24T11:08:21;101400.27;;;26.99;54.33
64115;BME280;62188;35.640;139.748;2023-07-24T11:10:47;101406.88;;;26.66;55.18
64115;BME280;62188;35.640;139.748;2023-07-24T11:13:12;101411.99;;;26.86;54.71
64115;BME280;62188;35.640;139.748;2023-07-24T11:15:36;101410.08;;;26.53;55.64
64115;BME280;62188;35.640;139.748;2023-07-24T11:18:01;101408.64;;;27.28;53.69
64115;BME280;62188;35.640;139.748;2023-07-24T11:20:27;101412.23;;;27.34;55.19
64115;BME280;62188;35.640;139.748;2023-07-24T11:22:51;101410.00;;;26.86;55.37
64115;BME280;62188;35.640;139.748;2023-07-24T11:25:17;101407.98;;;27.02;54.79
64115;BME280;62188;35.640;139.748;2023-07-24T11:27:43;101416.23;;;27.51;54.29
64115;BME280;62188;35.640;139.748;2023-07-24T11:30:09;101417.68;;;27.18;54.81
64115;BME280;62188;35.640;139.748;2023-07-24T11:32:33;101417.38;;;27.36;54.72
64115;BME280;62188;35.640;139.748;2023-07-24T11:34:58;101423.36;;;26.82;55.58
64115;BME280;62188;35.640;139.748;2023-07-24T11:37:23;101426.14;;;26.69;56.17
64115;BME280;62188;35.640;139.748;2023-07-24T11:39:59;101426.31;;;27.32;55.01
64115;BME280;62188;35.640;139.748;2023-07-24T11:42:14;101432.14;;;26.48;57.16
64115;BME280;62188;35.640;139.748;2023-07-24T11:44:41;101434.10;;;27.17;55.85
64115;BME280;62188;35.640;139.748;2023-07-24T11:47:06;101434.74;;;26.84;56.38
64115;BME280;62188;35.640;139.748;2023-07-24T11:49:32;101432.61;;;27.45;55.71
64115;BME280;62188;35.640;139.748;2023-07-24T11:52:02;101434.82;;;27.80;54.72
64115;BME280;62188;35.640;139.748;2023-07-24T11:54:22;101435.66;;;27.83;54.45
64115;BME280;62188;35.640;139.748;2023-07-24T11:56:48;101436.23;;;27.61;54.21
64115;BME280;62188;35.640;139.748;2023-07-24T11:59:15;101440.40;;;27.68;54.31
64115;BME280;62188;35.640;139.748;2023-07-24T12:01:39;101445.41;;;27.80;54.55
64115;BME280;62188;35.640;139.748;2023-07-24T12:04:04;101440.91;;;27.98;53.91
64115;BME280;62188;35.640;139.748;2023-07-24T12:06:32;101440.68;;;28.13;53.58
64115;BME280;62188;35.640;139.748;2023-07-24T12:09:02;101441.02;;;28.04;54.04
64115;BME280;62188;35.640;139.748;2023-07-24T12:11:21;101443.52;;;27.81;53.74
64115;BME280;62188;35.640;139.748;2023-07-24T12:13:47;101442.73;;;28.32;53.31
64115;BME280;62188;35.640;139.748;2023-07-24T12:16:12;101445.40;;;28.08;53.12
64115;BME280;62188;35.640;139.748;2023-07-24T12:18:38;101446.79;;;28.25;53.13
64115;BME280;62188;35.640;139.748;2023-07-24T12:21:03;101445.12;;;27.92;53.61
64115;BME280;62188;35.640;139.748;2023-07-24T12:23:28;101444.78;;;28.42;53.37